createdAt,value
2022-10-23T18:44:17.389Z,100458.69
2022-10-23T18:49:20.792Z,100462.38
2022-10-23T18:54:23.621Z,100465.06
2022-10-23T18:59:26.405Z,100469.38
2022-10-23T19:04:31.719Z,100471.44
2022-10-23T19:09:37.029Z,100465.88
2022-10-23T19:14:40.415Z,100473.91
2022-10-23T19:19:46.384Z,100475.97
2022-10-23T19:24:54.926Z,100493.66
2022-10-23T19:30:01.149Z,100478.88
2022-10-23T19:35:04.331Z,100463.69
2022-10-23T19:40:07.985Z,100455.88
2022-10-23T19:45:14.040Z,100449.97
2022-10-23T19:50:16.870Z,100467.13
2022-10-23T19:55:19.618Z,100472.09
2022-10-23T20:00:22.574Z,100468.22
2022-10-23T20:05:25.409Z,100469.22
2022-10-23T20:10:28.326Z,100477.47
2022-10-23T20:15:31.174Z,100474.13
2022-10-23T20:20:33.918Z,100477.19
2022-10-23T20:25:37.017Z,100476.94
2022-10-23T20:30:41.959Z,100478.13
2022-10-23T20:35:44.834Z,100479.06
2022-10-23T20:40:47.547Z,100462.56
2022-10-23T20:45:50.594Z,100452.44
2022-10-23T20:50:53.884Z,100443.88
2022-10-23T20:55:56.732Z,100437.44
2022-10-23T21:01:08.765Z,100433.53
2022-10-23T21:06:13.926Z,100437.53
2022-10-23T21:11:17.499Z,100429.81
2022-10-23T21:16:24.903Z,100434.88
2022-10-23T21:21:33.061Z,100428.41
2022-10-23T21:26:36.166Z,100429.78
2022-10-23T21:31:39.326Z,100428.97
2022-10-23T21:37:10.930Z,100427.94
2022-10-23T21:42:08.861Z,100438.63
2022-10-23T21:47:11.675Z,100433.28
2022-10-23T21:52:16.305Z,100444.25
2022-10-23T21:57:21.894Z,100432.56
2022-10-23T22:02:25.102Z,100427.69
2022-10-23T22:12:31.528Z,100429.53
2022-10-23T22:17:34.431Z,100423.06
2022-10-23T22:22:37.612Z,100443.88
2022-10-23T22:27:40.367Z,100432.91
2022-10-23T22:32:43.549Z,100432.66
2022-10-23T22:37:46.577Z,100448.41
2022-10-23T22:42:49.276Z,100444.72
2022-10-23T22:47:52.082Z,100435.69
2022-10-23T22:52:55.336Z,100445.84
2022-10-23T22:57:58.286Z,100427.56
2022-10-23T23:03:01.141Z,100426.59
2022-10-23T23:08:04.072Z,100428.25
2022-10-23T23:13:07.218Z,100428.06
2022-10-23T23:18:09.912Z,100416.34
2022-10-23T23:23:14.216Z,100420.66
2022-10-23T23:28:19.302Z,100418.81
2022-10-23T23:33:23.944Z,100417.84
2022-10-23T23:38:27.614Z,100416.00
2022-10-23T23:43:30.717Z,100404.09
2022-10-23T23:48:33.709Z,100410.94
2022-10-23T23:53:36.533Z,100406.84
2022-10-23T23:58:39.532Z,100413.84
